createdAt,value
2018-08-28T00:01:49.848Z,41.43
2018-08-28T00:04:19.248Z,41.39
2018-08-28T00:06:53.591Z,40.98
2018-08-28T00:09:23.016Z,41.41
2018-08-28T00:11:52.218Z,41.48
2018-08-28T00:14:21.852Z,41.08
2018-08-28T00:16:50.996Z,41.65
2018-08-28T00:19:20.235Z,41.15
2018-08-28T00:21:49.681Z,41.93
2018-08-28T00:24:19.006Z,42.07
2018-08-28T00:26:48.753Z,42.18
2018-08-28T00:29:18.131Z,42.75
2018-08-28T00:31:47.680Z,42.49
2018-08-28T00:34:17.631Z,42.29
2018-08-28T00:36:47.550Z,43.20
2018-08-28T00:39:16.912Z,43.39
2018-08-28T00:41:47.283Z,43.73
2018-08-28T00:44:17.011Z,43.95
2018-08-28T00:46:46.379Z,44.28
2018-08-28T00:49:17.939Z,44.09
2018-08-28T00:51:47.938Z,44.45
2018-08-28T00:54:17.497Z,44.76
2018-08-28T00:56:46.808Z,44.12
2018-08-28T00:59:16.297Z,44.85
2018-08-28T01:01:45.681Z,45.05
2018-08-28T01:04:14.837Z,45.09
2018-08-28T01:06:44.890Z,44.68
2018-08-28T01:09:13.959Z,45.25
2018-08-28T01:11:43.355Z,45.32
2018-08-28T01:14:12.898Z,45.79
2018-08-28T01:16:42.121Z,45.81
2018-08-28T01:19:11.443Z,45.90
2018-08-28T01:21:41.004Z,46.02
2018-08-28T01:24:10.407Z,46.09
2018-08-28T01:26:39.881Z,45.60
2018-08-28T01:29:09.238Z,46.45
2018-08-28T01:31:38.679Z,46.06
2018-08-28T01:34:07.976Z,46.43
2018-08-28T01:36:37.417Z,46.28
2018-08-28T01:39:07.990Z,46.54
2018-08-28T01:41:39.854Z,45.88
2018-08-28T01:44:12.068Z,46.02
2018-08-28T01:46:42.144Z,46.37
2018-08-28T01:49:11.502Z,46.24
2018-08-28T01:51:40.870Z,46.76
2018-08-28T01:54:10.310Z,46.99
2018-08-28T01:56:39.631Z,47.19
2018-08-28T01:59:08.839Z,46.83
2018-08-28T02:01:38.661Z,47.36
2018-08-28T02:04:08.238Z,46.71
2018-08-28T02:06:38.284Z,47.51
2018-08-28T02:09:08.243Z,47.14
2018-08-28T02:11:37.341Z,46.31
2018-08-28T02:14:06.748Z,46.53
2018-08-28T02:16:36.021Z,47.20
2018-08-28T02:19:05.295Z,46.44
2018-08-28T02:21:34.580Z,46.14
2018-08-28T02:24:03.870Z,47.16
2018-08-28T02:26:33.199Z,46.72
2018-08-28T02:29:04.245Z,46.87
2018-08-28T02:31:33.420Z,46.22
2018-08-28T02:34:02.899Z,46.00
2018-08-28T02:36:32.251Z,46.62
2018-08-28T02:39:01.779Z,46.37
2018-08-28T02:41:34.191Z,46.35
2018-08-28T02:44:03.504Z,46.38
2018-08-28T02:46:32.680Z,47.03
2018-08-28T02:49:01.993Z,46.54
2018-08-28T02:51:31.350Z,46.06
2018-08-28T02:54:00.724Z,46.65
2018-08-28T02:56:29.842Z,46.29
2018-08-28T02:58:59.328Z,46.78
2018-08-28T03:01:28.592Z,46.28
2018-08-28T03:03:57.729Z,46.72
2018-08-28T03:06:27.274Z,46.57
2018-08-28T03:08:56.670Z,47.13
2018-08-28T03:11:28.756Z,47.37
2018-08-28T03:13:58.311Z,47.43
2018-08-28T03:16:27.631Z,46.80
2018-08-28T03:18:57.106Z,46.58
2018-08-28T03:21:26.449Z,47.09
2018-08-28T03:23:57.229Z,46.62
2018-08-28T03:26:26.709Z,46.26
2018-08-28T03:28:56.001Z,46.50
2018-08-28T03:31:25.447Z,46.72
2018-08-28T03:33:55.260Z,46.09
2018-08-28T03:36:25.092Z,46.32
2018-08-28T03:38:54.429Z,45.96
2018-08-28T03:41:24.483Z,47.07
2018-08-28T03:43:55.632Z,46.92
2018-08-28T03:46:25.038Z,46.90
2018-08-28T03:48:54.110Z,46.97
2018-08-28T03:51:23.556Z,46.79
2018-08-28T03:53:52.876Z,47.30
2018-08-28T03:56:23.041Z,46.60
2018-08-28T03:58:54.963Z,47.02
2018-08-28T04:01:24.058Z,47.38
2018-08-28T04:03:53.390Z,46.89
2018-08-28T04:06:22.817Z,47.37
2018-08-28T04:08:52.098Z,47.28
2018-08-28T04:11:23.730Z,47.68
2018-08-28T04:13:53.762Z,47.37
2018-08-28T04:16:23.014Z,47.86
2018-08-28T04:18:52.653Z,47.65
2018-08-28T04:21:21.880Z,48.36
2018-08-28T04:23:51.588Z,48.32
2018-08-28T04:26:20.765Z,49.16
2018-08-28T04:28:50.091Z,48.60
2018-08-28T04:31:19.420Z,49.02
2018-08-28T04:33:49.131Z,48.39
2018-08-28T04:36:18.608Z,49.00
2018-08-28T04:38:47.656Z,48.46
2018-08-28T04:41:17.458Z,48.61
2018-08-28T04:43:46.740Z,48.57
2018-08-28T04:46:17.275Z,48.04
2018-08-28T04:48:46.686Z,48.47
2018-08-28T04:51:16.128Z,48.38
2018-08-28T04:53:45.097Z,47.92
2018-08-28T04:56:14.406Z,48.51
2018-08-28T04:58:43.774Z,48.41
2018-08-28T05:01:13.535Z,48.07
2018-08-28T05:03:42.792Z,48.66
2018-08-28T05:06:15.578Z,48.20
2018-08-28T05:08:44.743Z,48.08
2018-08-28T05:11:14.137Z,48.31
2018-08-28T05:13:43.588Z,48.60
2018-08-28T05:16:12.903Z,48.50
2018-08-28T05:18:42.402Z,47.80
2018-08-28T05:21:11.922Z,48.40
2018-08-28T05:23:41.846Z,48.33
2018-08-28T05:26:11.408Z,48.39
2018-08-28T05:28:40.779Z,48.38
2018-08-28T05:31:10.194Z,47.86
2018-08-28T05:33:39.701Z,47.52
2018-08-28T05:36:09.441Z,48.27
2018-08-28T05:38:38.679Z,47.33
2018-08-28T05:41:07.796Z,47.41
2018-08-28T05:43:37.176Z,47.53
2018-08-28T05:46:07.001Z,47.49
2018-08-28T05:48:36.272Z,48.12
2018-08-28T05:51:06.214Z,46.95
2018-08-28T05:53:35.579Z,47.77
2018-08-28T05:56:04.891Z,47.51
2018-08-28T05:58:35.047Z,47.72
2018-08-28T06:01:04.490Z,46.79
2018-08-28T06:03:33.895Z,46.38
2018-08-28T06:06:03.435Z,46.77
2018-08-28T06:08:32.705Z,45.99
2018-08-28T06:11:02.342Z,46.85
2018-08-28T06:13:32.126Z,46.90
2018-08-28T06:16:01.586Z,46.21
2018-08-28T06:18:31.033Z,46.37
2018-08-28T06:21:00.776Z,46.73
2018-08-28T06:23:30.752Z,46.17
2018-08-28T06:26:00.171Z,46.27
2018-08-28T06:28:30.254Z,46.46
2018-08-28T06:30:59.655Z,45.88
2018-08-28T06:33:29.056Z,46.17
2018-08-28T06:35:58.887Z,46.39
2018-08-28T06:38:28.355Z,45.76
2018-08-28T06:40:57.865Z,45.96
2018-08-28T06:43:27.393Z,45.89
2018-08-28T06:45:56.792Z,46.45
2018-08-28T06:48:26.175Z,46.06
2018-08-28T06:50:55.345Z,46.62
2018-08-28T06:53:24.688Z,45.92
2018-08-28T06:55:54.138Z,46.16
2018-08-28T06:58:23.497Z,45.54
2018-08-28T07:00:52.720Z,45.51
2018-08-28T07:03:22.451Z,45.48
2018-08-28T07:05:52.024Z,45.04
2018-08-28T07:08:21.310Z,45.20
2018-08-28T07:10:50.597Z,45.54
2018-08-28T07:13:19.876Z,45.69
2018-08-28T07:15:49.232Z,45.82
2018-08-28T07:18:18.483Z,46.06
2018-08-28T07:20:47.863Z,45.93
2018-08-28T07:23:17.345Z,46.12
2018-08-28T07:25:46.964Z,45.72
2018-08-28T07:28:16.453Z,46.44
2018-08-28T07:30:46.291Z,45.73
2018-08-28T07:33:15.676Z,46.18
2018-08-28T07:35:44.811Z,46.73
2018-08-28T07:38:13.915Z,46.34
2018-08-28T07:40:43.247Z,46.75
2018-08-28T07:43:12.696Z,47.25
2018-08-28T07:45:42.225Z,47.09
2018-08-28T07:48:11.713Z,47.32
2018-08-28T07:50:41.181Z,47.46
2018-08-28T07:53:10.475Z,46.94
2018-08-28T07:55:39.869Z,47.36
2018-08-28T07:58:09.257Z,47.85
2018-08-28T08:00:38.411Z,47.23
2018-08-28T08:03:07.788Z,47.21
2018-08-28T08:05:37.027Z,47.10
2018-08-28T08:08:06.365Z,47.97
2018-08-28T08:10:35.797Z,48.06
2018-08-28T08:13:05.063Z,48.31
2018-08-28T08:15:35.392Z,47.80
2018-08-28T08:18:05.585Z,48.27
2018-08-28T08:20:35.145Z,47.88
2018-08-28T08:23:04.380Z,47.91
2018-08-28T08:25:33.493Z,47.54
2018-08-28T08:28:02.892Z,48.53
2018-08-28T08:30:32.296Z,48.36
2018-08-28T08:33:01.908Z,48.49
2018-08-28T08:35:31.804Z,48.58
2018-08-28T08:38:01.176Z,48.78
2018-08-28T08:40:30.396Z,48.27
2018-08-28T08:43:00.016Z,47.84
2018-08-28T08:45:29.206Z,48.90
2018-08-28T08:47:58.799Z,48.08
2018-08-28T08:50:28.241Z,47.57
2018-08-28T08:52:57.520Z,47.77
2018-08-28T08:55:27.044Z,47.18
2018-08-28T08:57:56.246Z,46.81
2018-08-28T09:00:25.746Z,46.38
2018-08-28T09:02:55.231Z,46.30
2018-08-28T09:05:24.436Z,46.27
2018-08-28T09:07:54.722Z,46.32
2018-08-28T09:10:24.060Z,46.00
2018-08-28T09:12:53.406Z,45.75
2018-08-28T09:15:22.353Z,45.26
2018-08-28T09:17:52.151Z,45.82
2018-08-28T09:20:21.326Z,45.43
2018-08-28T09:22:50.680Z,45.86
2018-08-28T09:25:19.880Z,45.77
2018-08-28T09:27:49.073Z,45.37
2018-08-28T09:30:18.404Z,44.85
2018-08-28T09:32:47.974Z,45.12
2018-08-28T09:35:17.244Z,45.23
2018-08-28T09:37:46.709Z,45.38
2018-08-28T09:40:16.847Z,44.89
2018-08-28T09:42:46.059Z,44.82
2018-08-28T09:45:15.764Z,45.32
2018-08-28T09:47:44.982Z,44.28
2018-08-28T09:50:14.629Z,43.59
2018-08-28T09:52:44.145Z,43.64
2018-08-28T09:55:13.249Z,43.59
2018-08-28T09:57:42.857Z,43.38
2018-08-28T10:00:19.320Z,42.77
2018-08-28T10:02:48.766Z,42.62
2018-08-28T10:05:24.567Z,42.26
2018-08-28T10:07:53.854Z,42.35
2018-08-28T10:10:29.517Z,42.66
2018-08-28T10:12:58.439Z,42.67
2018-08-28T10:15:27.703Z,41.52
2018-08-28T10:17:56.893Z,41.03
2018-08-28T10:20:26.551Z,41.73
2018-08-28T10:22:55.758Z,40.74
2018-08-28T10:25:24.998Z,41.63
2018-08-28T10:27:53.978Z,41.59
2018-08-28T10:30:23.505Z,41.51
2018-08-28T10:32:52.556Z,41.43
2018-08-28T10:35:21.998Z,41.29
2018-08-28T10:37:51.045Z,41.01
2018-08-28T10:40:20.217Z,40.66
2018-08-28T10:42:49.669Z,40.37
2018-08-28T10:45:18.820Z,40.96
2018-08-28T10:47:48.141Z,40.32
2018-08-28T10:50:17.316Z,40.56
2018-08-28T10:52:47.656Z,40.87
2018-08-28T10:55:16.853Z,40.48
2018-08-28T10:57:46.291Z,39.57
2018-08-28T11:00:15.591Z,40.02
2018-08-28T11:02:45.160Z,40.59
2018-08-28T11:05:14.261Z,39.82
2018-08-28T11:07:43.423Z,39.59
2018-08-28T11:10:13.356Z,38.03
2018-08-28T11:12:43.061Z,38.44
2018-08-28T11:15:12.317Z,38.74
2018-08-28T11:17:41.551Z,37.86
2018-08-28T11:20:10.563Z,37.70
2018-08-28T11:22:40.993Z,37.90
2018-08-28T11:25:10.172Z,37.03
2018-08-28T11:27:40.199Z,36.88
2018-08-28T11:30:09.931Z,37.33
2018-08-28T11:32:39.995Z,37.74
2018-08-28T11:35:09.109Z,37.09
2018-08-28T11:37:38.764Z,37.77
2018-08-28T11:40:08.141Z,36.65
2018-08-28T11:42:37.438Z,36.54
2018-08-28T11:45:06.651Z,37.04
2018-08-28T11:47:35.964Z,36.56
2018-08-28T11:50:04.938Z,37.22
2018-08-28T11:52:34.761Z,36.59
2018-08-28T11:55:04.116Z,37.47
2018-08-28T11:57:33.929Z,37.52
2018-08-28T12:00:03.480Z,37.14
2018-08-28T12:02:32.576Z,37.29
2018-08-28T12:05:01.919Z,37.66
2018-08-28T12:07:31.325Z,37.83
2018-08-28T12:10:00.693Z,37.06
2018-08-28T12:12:29.865Z,37.17
2018-08-28T12:14:59.445Z,37.67
2018-08-28T12:17:28.605Z,37.17
2018-08-28T12:19:58.154Z,36.80
2018-08-28T12:22:27.476Z,37.49
2018-08-28T12:24:56.892Z,37.34
2018-08-28T12:27:26.005Z,37.29
2018-08-28T12:29:55.134Z,37.53
2018-08-28T12:32:24.407Z,37.52
2018-08-28T12:34:53.737Z,37.58
2018-08-28T12:37:23.099Z,37.23
2018-08-28T12:39:52.445Z,37.66
2018-08-28T12:42:21.525Z,37.20
2018-08-28T12:44:50.769Z,37.27
2018-08-28T12:47:20.245Z,36.92
2018-08-28T12:49:49.396Z,37.19
2018-08-28T12:52:18.771Z,37.08
2018-08-28T12:54:54.467Z,35.98
2018-08-28T12:57:23.817Z,36.49
2018-08-28T12:59:52.876Z,36.32
2018-08-28T13:02:22.132Z,35.92
2018-08-28T13:04:51.584Z,35.18
2018-08-28T13:07:20.858Z,35.39
2018-08-28T13:09:50.241Z,35.35
2018-08-28T13:12:19.721Z,35.75
2018-08-28T13:14:49.032Z,35.91
2018-08-28T13:17:18.731Z,35.84
2018-08-28T13:19:48.160Z,34.99
2018-08-28T13:22:17.763Z,35.51
2018-08-28T13:24:46.871Z,34.99
2018-08-28T13:27:16.095Z,34.74
2018-08-28T13:29:45.938Z,34.80
2018-08-28T13:32:21.328Z,35.11
2018-08-28T13:34:50.516Z,34.36
2018-08-28T13:37:19.489Z,34.23
2018-08-28T13:39:48.674Z,34.68
2018-08-28T13:42:18.488Z,34.88
2018-08-28T13:44:47.557Z,34.72
2018-08-28T13:47:17.899Z,33.77
2018-08-28T13:49:47.216Z,33.60
2018-08-28T13:52:16.963Z,34.25
2018-08-28T13:54:46.270Z,34.19
2018-08-28T13:57:15.256Z,33.29
2018-08-28T13:59:44.297Z,33.03
2018-08-28T14:02:13.897Z,33.42
2018-08-28T14:04:42.912Z,32.58
2018-08-28T14:07:12.366Z,33.92
2018-08-28T14:09:41.497Z,33.38
2018-08-28T14:12:11.115Z,32.49
2018-08-28T14:14:40.353Z,32.59
2018-08-28T14:17:09.485Z,32.84
2018-08-28T14:19:38.701Z,33.03
2018-08-28T14:22:07.895Z,33.13
2018-08-28T14:24:37.269Z,33.31
2018-08-28T14:27:07.006Z,34.03
2018-08-28T14:29:36.350Z,33.61
2018-08-28T14:32:05.793Z,33.48
2018-08-28T14:34:34.771Z,33.96
2018-08-28T14:37:04.727Z,33.21
2018-08-28T14:39:34.327Z,33.23
2018-08-28T14:42:03.790Z,33.23
2018-08-28T14:44:32.949Z,33.23
2018-08-28T14:47:02.017Z,32.43
2018-08-28T14:49:31.350Z,33.06
2018-08-28T14:52:00.516Z,32.31
2018-08-28T14:54:29.686Z,32.08
2018-08-28T14:56:59.598Z,32.27
2018-08-28T14:59:28.932Z,31.79
2018-08-28T15:01:58.154Z,32.53
2018-08-28T15:04:27.130Z,31.70
2018-08-28T15:06:56.687Z,31.69
2018-08-28T15:09:26.307Z,31.70
2018-08-28T15:11:55.331Z,32.22
2018-08-28T15:14:24.968Z,32.39
2018-08-28T15:16:54.267Z,31.79
2018-08-28T15:19:26.764Z,32.48
2018-08-28T15:21:55.963Z,31.82
2018-08-28T15:24:24.901Z,31.95
2018-08-28T15:26:54.022Z,32.25
2018-08-28T15:29:23.389Z,32.32
2018-08-28T15:31:52.408Z,32.34
2018-08-28T15:34:21.496Z,32.42
2018-08-28T15:36:50.591Z,31.97
2018-08-28T15:39:20.489Z,32.06
2018-08-28T15:41:49.822Z,32.54
2018-08-28T15:44:19.426Z,31.68
2018-08-28T15:46:49.251Z,31.56
2018-08-28T15:49:18.330Z,32.35
2018-08-28T15:51:47.739Z,32.41
2018-08-28T15:54:16.898Z,32.05
2018-08-28T15:56:46.457Z,32.17
2018-08-28T15:59:15.631Z,32.38
2018-08-28T16:01:44.921Z,32.00
2018-08-28T16:04:20.966Z,32.50
2018-08-28T16:06:51.729Z,32.64
2018-08-28T16:09:20.822Z,31.94
2018-08-28T16:11:49.789Z,32.59
2018-08-28T16:14:18.956Z,32.23
2018-08-28T16:16:51.100Z,32.00
2018-08-28T16:19:20.416Z,31.90
2018-08-28T16:21:52.803Z,31.83
2018-08-28T16:24:22.313Z,32.01
2018-08-28T16:26:52.189Z,31.84
2018-08-28T16:29:21.260Z,32.54
2018-08-28T16:31:50.445Z,31.74
2018-08-28T16:34:19.542Z,31.64
2018-08-28T16:36:49.246Z,31.57
2018-08-28T16:39:18.449Z,32.09
2018-08-28T16:41:47.471Z,31.97
2018-08-28T16:44:16.738Z,32.47
2018-08-28T16:46:45.836Z,32.56
2018-08-28T16:49:15.136Z,32.02
2018-08-28T16:51:44.416Z,33.17
2018-08-28T16:54:13.469Z,32.77
2018-08-28T16:56:42.754Z,32.07
2018-08-28T16:59:12.222Z,32.59
2018-08-28T17:01:41.272Z,31.98
2018-08-28T17:04:10.530Z,31.78
2018-08-28T17:06:39.798Z,32.21
2018-08-28T17:09:09.136Z,31.97
2018-08-28T17:11:38.840Z,32.61
2018-08-28T17:14:08.254Z,32.00
2018-08-28T17:16:37.423Z,32.23
2018-08-28T17:19:07.051Z,31.87
2018-08-28T17:21:36.394Z,31.59
2018-08-28T17:24:06.369Z,32.16
2018-08-28T17:26:35.727Z,32.70
2018-08-28T17:29:04.820Z,32.84
2018-08-28T17:31:33.828Z,32.22
2018-08-28T17:34:02.904Z,33.37
2018-08-28T17:36:32.348Z,33.30
2018-08-28T17:39:01.509Z,33.43
2018-08-28T17:41:30.710Z,32.90
2018-08-28T17:44:00.125Z,33.28
2018-08-28T17:46:29.510Z,34.02
2018-08-28T17:48:58.910Z,33.41
2018-08-28T17:51:28.029Z,33.50
2018-08-28T17:53:57.558Z,34.26
2018-08-28T17:56:26.860Z,33.80
2018-08-28T17:58:56.796Z,34.35
2018-08-28T18:01:26.147Z,33.92
2018-08-28T18:03:56.122Z,33.91
2018-08-28T18:06:25.735Z,34.79
2018-08-28T18:08:55.219Z,34.49
2018-08-28T18:11:24.904Z,34.60
2018-08-28T18:13:54.667Z,35.14
2018-08-28T18:16:24.406Z,35.58
2018-08-28T18:18:53.974Z,35.22
2018-08-28T18:21:23.880Z,35.48
2018-08-28T18:23:53.074Z,34.92
2018-08-28T18:26:23.112Z,36.04
2018-08-28T18:28:52.299Z,36.47
2018-08-28T18:31:21.723Z,36.18
2018-08-28T18:33:51.065Z,36.32
2018-08-28T18:36:21.423Z,36.76
2018-08-28T18:38:50.848Z,36.59
2018-08-28T18:41:20.442Z,37.14
2018-08-28T18:43:50.523Z,36.79
2018-08-28T18:46:20.677Z,37.19
2018-08-28T18:48:50.231Z,37.55
2018-08-28T18:51:19.424Z,36.51
2018-08-28T18:53:49.168Z,37.06
2018-08-28T18:56:18.536Z,36.65
2018-08-28T18:58:48.352Z,36.94
2018-08-28T19:01:17.666Z,37.23
2018-08-28T19:03:46.847Z,37.94
2018-08-28T19:06:16.014Z,38.01
2018-08-28T19:08:45.488Z,37.83
2018-08-28T19:11:14.890Z,37.75
2018-08-28T19:13:48.056Z,37.36
2018-08-28T19:16:20.059Z,38.18
2018-08-28T19:18:52.031Z,38.12
2018-08-28T19:21:21.575Z,38.71
2018-08-28T19:23:53.073Z,38.21
2018-08-28T19:26:25.537Z,38.72
2018-08-28T19:28:56.725Z,39.19
2018-08-28T19:31:34.179Z,38.77
2018-08-28T19:34:03.801Z,39.82
2018-08-28T19:36:33.282Z,39.66
2018-08-28T19:39:02.604Z,39.69
2018-08-28T19:41:31.919Z,39.33
2018-08-28T19:44:07.536Z,39.66
2018-08-28T19:46:36.879Z,38.93
2018-08-28T19:49:05.956Z,39.68
2018-08-28T19:51:35.435Z,39.29
2018-08-28T19:54:04.721Z,39.43
2018-08-28T19:56:33.924Z,39.67
2018-08-28T19:59:03.301Z,39.52
2018-08-28T20:01:32.697Z,40.52
2018-08-28T20:04:02.541Z,39.91
2018-08-28T20:06:32.048Z,40.56
2018-08-28T20:09:01.471Z,40.33
2018-08-28T20:11:31.009Z,40.98
2018-08-28T20:14:00.315Z,41.18
2018-08-28T20:16:29.780Z,41.41
2018-08-28T20:18:59.087Z,41.84
2018-08-28T20:21:28.216Z,41.40
2018-08-28T20:23:57.584Z,41.66
2018-08-28T20:26:26.788Z,42.66
2018-08-28T20:28:56.014Z,42.80
2018-08-28T20:31:25.434Z,42.96
2018-08-28T20:33:54.843Z,44.41
2018-08-28T20:36:23.980Z,44.53
2018-08-28T20:38:53.527Z,44.07
2018-08-28T20:41:22.592Z,44.58
2018-08-28T20:43:53.001Z,44.28
2018-08-28T20:46:22.583Z,44.91
2018-08-28T20:48:52.253Z,45.38
2018-08-28T20:51:21.669Z,45.56
2018-08-28T20:53:51.071Z,45.55
2018-08-28T20:56:20.452Z,45.84
2018-08-28T20:58:50.121Z,45.75
2018-08-28T21:01:19.805Z,46.37
2018-08-28T21:03:49.835Z,45.45
2018-08-28T21:06:18.991Z,46.18
2018-08-28T21:08:48.733Z,46.15
2018-08-28T21:11:17.579Z,46.38
2018-08-28T21:13:46.644Z,46.36
2018-08-28T21:16:16.010Z,46.86
2018-08-28T21:18:45.354Z,46.71
2018-08-28T21:21:17.278Z,47.33
2018-08-28T21:23:46.628Z,47.28
2018-08-28T21:26:15.696Z,47.28
2018-08-28T21:28:45.115Z,47.57
2018-08-28T21:31:14.102Z,47.98
2018-08-28T21:33:43.541Z,48.08
2018-08-28T21:36:12.516Z,47.96
2018-08-28T21:38:41.700Z,47.64
2018-08-28T21:41:10.840Z,48.16
2018-08-28T21:43:40.018Z,48.70
2018-08-28T21:46:09.385Z,47.93
2018-08-28T21:48:38.581Z,48.80
2018-08-28T21:51:07.705Z,49.10
2018-08-28T21:53:37.110Z,48.78
2018-08-28T21:56:06.398Z,49.11
2018-08-28T21:58:35.485Z,48.80
2018-08-28T22:01:10.991Z,48.59
2018-08-28T22:03:41.066Z,48.94
2018-08-28T22:06:15.689Z,48.88
2018-08-28T22:08:44.882Z,49.21
2018-08-28T22:11:14.186Z,49.04
2018-08-28T22:13:43.789Z,49.20
2018-08-28T22:16:12.913Z,49.23
2018-08-28T22:18:42.070Z,49.21
2018-08-28T22:21:11.080Z,48.56
2018-08-28T22:23:40.573Z,48.72
2018-08-28T22:26:09.572Z,48.65
2018-08-28T22:28:38.877Z,47.49
2018-08-28T22:31:07.951Z,48.04
2018-08-28T22:33:36.987Z,48.17
2018-08-28T22:36:05.942Z,48.48
2018-08-28T22:38:37.101Z,47.76
2018-08-28T22:41:09.871Z,48.01
2018-08-28T22:43:42.046Z,47.78
2018-08-28T22:46:15.230Z,47.89
2018-08-28T22:48:44.626Z,48.41
2018-08-28T22:51:18.083Z,48.06
2018-08-28T22:53:47.524Z,48.28
2018-08-28T22:56:19.325Z,47.95
2018-08-28T22:58:51.667Z,48.53
2018-08-28T23:01:23.410Z,48.56
2018-08-28T23:03:55.305Z,48.71
2018-08-28T23:06:31.089Z,48.96
2018-08-28T23:09:03.189Z,49.13
2018-08-28T23:11:32.401Z,48.51
2018-08-28T23:14:01.972Z,48.15
2018-08-28T23:16:33.241Z,48.30
2018-08-28T23:19:02.988Z,48.42
2018-08-28T23:21:32.000Z,49.06
2018-08-28T23:24:01.050Z,48.52
2018-08-28T23:26:30.287Z,48.55
2018-08-28T23:28:59.235Z,49.26
2018-08-28T23:31:32.047Z,48.68
2018-08-28T23:34:02.517Z,48.62
2018-08-28T23:36:32.127Z,48.87
2018-08-28T23:39:01.063Z,48.63
2018-08-28T23:41:30.196Z,48.99
2018-08-28T23:43:59.325Z,49.31
2018-08-28T23:46:28.497Z,49.44
2018-08-28T23:48:57.618Z,48.94
2018-08-28T23:51:26.925Z,49.02
2018-08-28T23:53:56.236Z,48.43
2018-08-28T23:56:25.410Z,48.13
2018-08-28T23:58:54.782Z,48.76
